Wetterdaten: aktuell Samstag, 04.02.2023 12:25
Datum Zeit Temperatur Luftfeuchte Luftdruck Regen Wind Richtung Richtung Taupunkt Windchill Windben
04.02.2023 12:25 1,3 C 74 % 1035,9 hPa 0,0 l/m 11,5 km/h (2 Bft) NW 326 -2,8 C -3,2 C 19,3 km/h (3 Bft)
04.02.2023 12:20 1,6 C 75 % 1035,9 hPa 0,0 l/m 6,3 km/h (2 Bft) NW 317 -2,3 C 1,6 C 12,9 km/h (3 Bft)
04.02.2023 12:15 1,7 C 74 % 1036,0 hPa 0,0 l/m 4,2 km/h (1 Bft) NW 318 -2,4 C 1,7 C 8,0 km/h (2 Bft)
04.02.2023 12:10 1,5 C 76 % 1035,8 hPa 0,0 l/m 3,8 km/h (1 Bft) N-NO 13 -2,3 C 1,5 C 9,7 km/h (2 Bft)
04.02.2023 12:05 1,2 C 75 % 1035,9 hPa 0,0 l/m 4,6 km/h (1 Bft) N-NW 333 -2,7 C 1,2 C 9,7 km/h (2 Bft)
04.02.2023 12:00 1,1 C 75 % 1035,9 hPa 0,0 l/m 4,3 km/h (1 Bft) N 355 -2,8 C 1,1 C 9,7 km/h (2 Bft)
04.02.2023 11:55 1,0 C 77 % 1035,7 hPa 0,0 l/m 2,9 km/h (1 Bft) N-NW 336 -2,6 C 1,0 C 8,0 km/h (2 Bft)
04.02.2023 11:50 0,9 C 78 % 1035,7 hPa 0,0 l/m 3,3 km/h (1 Bft) NW 315 -2,5 C 0,9 C 8,0 km/h (2 Bft)
04.02.2023 11:45 0,9 C 77 % 1035,8 hPa 0,0 l/m 5,6 km/h (2 Bft) N 360 -2,7 C 0,9 C 8,0 km/h (2 Bft)
04.02.2023 11:40 1,1 C 78 % 1035,6 hPa 0,0 l/m 4,6 km/h (1 Bft) N 5 -2,3 C 1,1 C 9,7 km/h (2 Bft)
04.02.2023 11:35 1,1 C 78 % 1035,8 hPa 0,0 l/m 5,4 km/h (2 Bft) NW 317 -2,3 C 1,1 C 14,5 km/h (3 Bft)
04.02.2023 11:30 1,2 C 76 % 1035,7 hPa 0,0 l/m 10,3 km/h (2 Bft) N-NW 327 -2,5 C -2,4 C 17,7 km/h (3 Bft)
04.02.2023 11:25 1,4 C 76 % 1035,7 hPa 0,0 l/m 9,1 km/h (2 Bft) NW 308 -2,4 C -1,2 C 19,3 km/h (3 Bft)
04.02.2023 11:20 1,6 C 78 % 1035,6 hPa 0,0 l/m 8,6 km/h (2 Bft) N-NW 331 -1,8 C -0,5 C 16,1 km/h (3 Bft)
04.02.2023 11:15 1,3 C 79 % 1035,6 hPa 0,0 l/m 5,0 km/h (1 Bft) W-NW 296 -1,9 C 1,3 C 12,9 km/h (3 Bft)
04.02.2023 11:10 0,9 C 80 % 1035,5 hPa 0,0 l/m 6,6 km/h (2 Bft) N-NW 339 -2,2 C 0,7 C 12,9 km/h (3 Bft)
04.02.2023 11:05 0,9 C 79 % 1035,5 hPa 0,0 l/m 8,6 km/h (2 Bft) N-NW 344 -2,3 C -1,3 C 16,1 km/h (3 Bft)
04.02.2023 11:00 1,0 C 80 % 1035,4 hPa 0,0 l/m 6,8 km/h (2 Bft) NW 323 -2,1 C 0,6 C 12,9 km/h (3 Bft)
04.02.2023 10:55 1,0 C 80 % 1035,3 hPa 0,0 l/m 8,8 km/h (2 Bft) NW 324 -2,1 C -1,3 C 16,1 km/h (3 Bft)
04.02.2023 10:50 1,1 C 80 % 1035,3 hPa 0,0 l/m 5,7 km/h (2 Bft) N-NW 332 -2,0 C 1,1 C 12,9 km/h (3 Bft)
04.02.2023 10:45 1,0 C 80 % 1035,2 hPa 0,0 l/m 5,6 km/h (2 Bft) NW 323 -2,1 C 1,0 C 12,9 km/h (3 Bft)
04.02.2023 10:40 0,9 C 80 % 1035,2 hPa 0,0 l/m 2,3 km/h (1 Bft) N-NW 329 -2,2 C 0,9 C 6,4 km/h (2 Bft)
04.02.2023 10:35 0,8 C 80 % 1034,9 hPa 0,0 l/m 5,7 km/h (2 Bft) N 355 -2,2 C 0,8 C 14,5 km/h (3 Bft)
04.02.2023 10:30 0,7 C 79 % 1034,8 hPa 0,0 l/m 6,9 km/h (2 Bft) N-NO 12 -2,5 C 0,2 C 17,7 km/h (3 Bft)
04.02.2023 10:25 0,7 C 80 % 1034,6 hPa 0,0 l/m 9,1 km/h (2 Bft) N-NW 333 -2,3 C -1,9 C 17,7 km/h (3 Bft)
04.02.2023 10:20 0,7 C 80 % 1034,4 hPa 0,0 l/m 7,5 km/h (2 Bft) N-NW 336 -2,3 C -0,4 C 16,1 km/h (3 Bft)
04.02.2023 10:15 0,8 C 80 % 1034,4 hPa 0,0 l/m 9,9 km/h (2 Bft) NW 313 -2,2 C -2,5 C 17,7 km/h (3 Bft)
04.02.2023 10:10 0,7 C 80 % 1034,3 hPa 0,0 l/m 8,4 km/h (2 Bft) N-NW 329 -2,3 C -1,3 C 19,3 km/h (3 Bft)
04.02.2023 10:05 0,8 C 81 % 1034,2 hPa 0,0 l/m 10,7 km/h (2 Bft) NW 314 -2,1 C -3,1 C 20,9 km/h (4 Bft)
04.02.2023 10:00 0,9 C 81 % 1034,1 hPa 0,0 l/m 12,2 km/h (2 Bft) NW 326 -2,0 C -4,1 C 19,3 km/h (3 Bft)
04.02.2023 09:55 0,8 C 81 % 1034,0 hPa 0,0 l/m 13,6 km/h (3 Bft) W-NW 295 -2,1 C -5,2 C 24,1 km/h (4 Bft)
04.02.2023 09:50 0,9 C 81 % 1033,8 hPa 0,0 l/m 13,0 km/h (3 Bft) N-NW 346 -2,0 C -4,6 C 24,1 km/h (4 Bft)
04.02.2023 09:45 0,9 C 81 % 1033,8 hPa 0,0 l/m 11,3 km/h (2 Bft) N-NW 344 -2,0 C -3,5 C 17,7 km/h (3 Bft)
04.02.2023 09:40 1,0 C 81 % 1033,6 hPa 0,0 l/m 12,8 km/h (3 Bft) NW 306 -1,9 C -4,4 C 24,1 km/h (4 Bft)
04.02.2023 09:35 1,1 C 82 % 1033,6 hPa 0,0 l/m 10,4 km/h (2 Bft) N-NW 338 -1,6 C -2,6 C 20,9 km/h (4 Bft)
04.02.2023 09:30 1,0 C 83 % 1033,5 hPa 0,0 l/m 8,9 km/h (2 Bft) W-NW 302 -1,6 C -1,4 C 14,5 km/h (3 Bft)
04.02.2023 09:25 0,9 C 82 % 1033,6 hPa 0,0 l/m 8,5 km/h (2 Bft) NW 313 -1,8 C -1,2 C 17,7 km/h (3 Bft)
04.02.2023 09:20 1,0 C 83 % 1033,5 hPa 0,0 l/m 11,9 km/h (2 Bft) W 269 -1,6 C -3,8 C 19,3 km/h (3 Bft)
04.02.2023 09:15 1,1 C 83 % 1033,4 hPa 0,0 l/m 7,2 km/h (2 Bft) NW 315 -1,5 C 0,3 C 14,5 km/h (3 Bft)
04.02.2023 09:10 1,2 C 85 % 1033,3 hPa 0,0 l/m 7,6 km/h (2 Bft) NW 326 -1,0 C -0,0 C 14,5 km/h (3 Bft)
04.02.2023 09:05 1,1 C 84 % 1033,2 hPa 0,0 l/m 8,7 km/h (2 Bft) N-NW 339 -1,3 C -1,1 C 14,5 km/h (3 Bft)
04.02.2023 09:00 0,9 C 85 % 1033,1 hPa 0,0 l/m 8,4 km/h (2 Bft) NW 324 -1,3 C -1,1 C 14,5 km/h (3 Bft)
04.02.2023 08:55 0,8 C 85 % 1033,0 hPa 0,0 l/m 7,4 km/h (2 Bft) N-NW 337 -1,4 C -0,2 C 9,7 km/h (2 Bft)
04.02.2023 08:50 0,7 C 86 % 1033,0 hPa 0,0 l/m 7,5 km/h (2 Bft) NW 310 -1,4 C -0,4 C 12,9 km/h (3 Bft)
04.02.2023 08:45 0,4 C 88 % 1032,9 hPa 0,0 l/m 5,7 km/h (2 Bft) W-NW 301 -1,3 C 0,4 C 8,0 km/h (2 Bft)
04.02.2023 08:40 0,5 C 86 % 1032,8 hPa 0,0 l/m 4,4 km/h (1 Bft) N-NW 331 -1,6 C 0,5 C 6,4 km/h (2 Bft)
04.02.2023 08:35 0,6 C 85 % 1032,7 hPa 0,0 l/m 3,9 km/h (1 Bft) W-NW 302 -1,6 C 0,6 C 6,4 km/h (2 Bft)
04.02.2023 08:30 0,2 C 86 % 1032,6 hPa 0,0 l/m 1,1 km/h (1 Bft) N-NW 340 -1,9 C 0,2 C 6,4 km/h (2 Bft)
04.02.2023 08:25 0,1 C 87 % 1032,4 hPa 0,0 l/m 0,0 km/h (0 Bft) NW 321 -1,8 C 0,1 C 0,0 km/h (0 Bft)
04.02.2023 08:20 0,1 C 88 % 1032,3 hPa 0,0 l/m 0,6 km/h (0 Bft) NW 321 -1,6 C 0,1 C 3,2 km/h (1 Bft)
04.02.2023 08:15 0,1 C 88 % 1032,1 hPa 0,0 l/m 2,3 km/h (1 Bft) NW 316 -1,6 C 0,1 C 3,2 km/h (1 Bft)
04.02.2023 08:10 0,2 C 88 % 1032,1 hPa 0,0 l/m 4,7 km/h (1 Bft) W-NW 297 -1,5 C 0,2 C 8,0 km/h (2 Bft)
04.02.2023 08:05 0,3 C 87 % 1032,0 hPa 0,0 l/m 6,1 km/h (2 Bft) NW 321 -1,6 C 0,3 C 11,3 km/h (2 Bft)
04.02.2023 08:00 0,3 C 88 % 1031,9 hPa 0,0 l/m 6,6 km/h (2 Bft) W-NW 292 -1,4 C 0,1 C 12,9 km/h (3 Bft)
04.02.2023 07:55 0,4 C 87 % 1031,9 hPa 0,0 l/m 7,5 km/h (2 Bft) NW 319 -1,5 C -0,7 C 16,1 km/h (3 Bft)
04.02.2023 07:50 0,6 C 87 % 1031,7 hPa 0,0 l/m 7,5 km/h (2 Bft) NW 304 -1,3 C -0,5 C 14,5 km/h (3 Bft)
04.02.2023 07:45 0,7 C 86 % 1031,7 hPa 0,0 l/m 9,9 km/h (2 Bft) NW 310 -1,4 C -2,6 C 20,9 km/h (4 Bft)
04.02.2023 07:40 0,7 C 87 % 1031,5 hPa 0,0 l/m 10,9 km/h (2 Bft) NW 315 -1,2 C -3,4 C 24,1 km/h (4 Bft)
04.02.2023 07:35 0,8 C 88 % 1031,4 hPa 0,0 l/m 9,8 km/h (2 Bft) N-NW 336 -1,0 C -2,4 C 17,7 km/h (3 Bft)
04.02.2023 07:30 0,7 C 89 % 1031,3 hPa 0,0 l/m 5,8 km/h (2 Bft) W-NW 300 -0,9 C 0,7 C 11,3 km/h (2 Bft)
04.02.2023 07:25 0,8 C 89 % 1031,1 hPa 0,0 l/m 6,7 km/h (2 Bft) W-NW 300 -0,8 C 0,5 C 11,3 km/h (2 Bft)
04.02.2023 07:20 0,8 C 89 % 1031,0 hPa 0,0 l/m 9,7 km/h (2 Bft) NW 309 -0,8 C -2,3 C 19,3 km/h (3 Bft)
04.02.2023 07:15 0,9 C 90 % 1030,6 hPa 0,0 l/m 8,1 km/h (2 Bft) NW 311 -0,6 C -0,8 C 17,7 km/h (3 Bft)
04.02.2023 07:10 0,9 C 90 % 1030,5 hPa 0,0 l/m 5,9 km/h (2 Bft) W-NW 290 -0,6 C 0,9 C 14,5 km/h (3 Bft)
04.02.2023 07:05 1,0 C 90 % 1030,3 hPa 0,0 l/m 7,0 km/h (2 Bft) N-NW 335 -0,5 C 0,4 C 12,9 km/h (3 Bft)
04.02.2023 07:00 1,0 C 90 % 1030,0 hPa 0,0 l/m 5,1 km/h (1 Bft) N-NW 338 -0,5 C 1,0 C 14,5 km/h (3 Bft)
04.02.2023 06:55 1,1 C 90 % 1029,9 hPa 0,0 l/m 11,9 km/h (2 Bft) N 355 -0,4 C -3,7 C 19,3 km/h (3 Bft)
04.02.2023 06:50 1,1 C 90 % 1029,8 hPa 0,0 l/m 10,9 km/h (2 Bft) NW 310 -0,4 C -2,9 C 19,3 km/h (3 Bft)
04.02.2023 06:45 1,2 C 89 % 1029,6 hPa 0,0 l/m 11,6 km/h (2 Bft) NW 307 -0,4 C -3,3 C 19,3 km/h (3 Bft)
04.02.2023 06:40 1,2 C 90 % 1029,3 hPa 0,0 l/m 13,4 km/h (3 Bft) N-NW 333 -0,3 C -4,6 C 22,5 km/h (4 Bft)
04.02.2023 06:35 1,3 C 91 % 1029,2 hPa 0,0 l/m 14,2 km/h (3 Bft) NW 316 -0,0 C -4,9 C 20,9 km/h (4 Bft)
04.02.2023 06:30 1,3 C 91 % 1029,0 hPa 0,0 l/m 17,2 km/h (3 Bft) NW 323 -0,0 C -6,6 C 25,7 km/h (4 Bft)
04.02.2023 06:25 1,3 C 92 % 1029,1 hPa 0,0 l/m 15,5 km/h (3 Bft) NW 326 0,1 C -5,7 C 24,1 km/h (4 Bft)
04.02.2023 06:20 1,3 C 93 % 1029,0 hPa 0,0 l/m 14,6 km/h (3 Bft) W-NW 289 0,3 C -5,2 C 25,7 km/h (4 Bft)
04.02.2023 06:15 1,3 C 93 % 1028,9 hPa 0,0 l/m 12,1 km/h (2 Bft) NW 315 0,3 C -3,6 C 24,1 km/h (4 Bft)
04.02.2023 06:10 1,3 C 93 % 1028,8 hPa 0,0 l/m 12,8 km/h (3 Bft) N-NW 329 0,3 C -4,0 C 19,3 km/h (3 Bft)
04.02.2023 06:05 1,3 C 94 % 1028,7 hPa 0,0 l/m 11,8 km/h (2 Bft) NW 309 0,4 C -3,4 C 20,9 km/h (4 Bft)
04.02.2023 06:00 1,3 C 94 % 1028,5 hPa 0,0 l/m 14,7 km/h (3 Bft) W-NW 290 0,4 C -5,2 C 22,5 km/h (4 Bft)
04.02.2023 05:55 1,3 C 94 % 1028,6 hPa 0,0 l/m 16,7 km/h (3 Bft) NW 324 0,4 C -6,3 C 25,7 km/h (4 Bft)
04.02.2023 05:50 1,3 C 93 % 1028,5 hPa 0,0 l/m 14,4 km/h (3 Bft) W-SW 254 0,3 C -5,1 C 25,7 km/h (4 Bft)
04.02.2023 05:45 1,4 C 93 % 1028,5 hPa 0,0 l/m 11,7 km/h (2 Bft) NW 309 0,4 C -3,2 C 19,3 km/h (3 Bft)
04.02.2023 05:40 1,5 C 92 % 1028,5 hPa 0,0 l/m 14,9 km/h (3 Bft) N-NW 346 0,3 C -5,1 C 25,7 km/h (4 Bft)
04.02.2023 05:35 1,8 C 90 % 1028,4 hPa 0,2 l/m 16,5 km/h (3 Bft) NW 314 0,3 C -5,6 C 27,4 km/h (5 Bft)
04.02.2023 05:30 2,2 C 88 % 1028,4 hPa 0,2 l/m 17,7 km/h (3 Bft) N-NW 338 0,4 C -5,7 C 30,6 km/h (5 Bft)
04.02.2023 05:25 2,3 C 87 % 1028,1 hPa 0,0 l/m 16,4 km/h (3 Bft) N-NW 346 0,4 C -5,0 C 30,6 km/h (5 Bft)
04.02.2023 05:20 2,4 C 86 % 1027,7 hPa 0,0 l/m 17,1 km/h (3 Bft) NW 323 0,3 C -5,2 C 27,4 km/h (5 Bft)
04.02.2023 05:15 2,6 C 85 % 1027,6 hPa 0,0 l/m 19,0 km/h (3 Bft) NW 305 0,3 C -5,8 C 27,4 km/h (5 Bft)
04.02.2023 05:10 2,6 C 86 % 1027,4 hPa 0,0 l/m 16,7 km/h (3 Bft) N 355 0,5 C -4,7 C 25,7 km/h (4 Bft)
04.02.2023 05:05 2,6 C 85 % 1027,2 hPa 0,0 l/m 13,4 km/h (3 Bft) NW 306 0,3 C -2,9 C 20,9 km/h (4 Bft)
04.02.2023 05:00 2,7 C 85 % 1027,1 hPa 0,0 l/m 17,8 km/h (3 Bft) NW 315 0,4 C -5,1 C 29,0 km/h (5 Bft)
04.02.2023 04:55 2,7 C 84 % 1026,9 hPa 0,0 l/m 19,1 km/h (3 Bft) NW 304 0,3 C -5,7 C 41,8 km/h (6 Bft)
04.02.2023 04:50 2,8 C 84 % 1026,8 hPa 0,0 l/m 15,7 km/h (3 Bft) W 275 0,4 C -4,0 C 24,1 km/h (4 Bft)
04.02.2023 04:45 2,8 C 83 % 1026,8 hPa 0,0 l/m 18,3 km/h (3 Bft) NW 319 0,2 C -5,3 C 29,0 km/h (5 Bft)
04.02.2023 04:40 2,8 C 83 % 1026,9 hPa 0,0 l/m 18,0 km/h (3 Bft) N-NW 334 0,2 C -5,1 C 25,7 km/h (4 Bft)
04.02.2023 04:35 2,9 C 83 % 1026,9 hPa 0,0 l/m 18,7 km/h (3 Bft) NW 324 0,3 C -5,3 C 30,6 km/h (5 Bft)
04.02.2023 04:30 2,9 C 83 % 1026,7 hPa 0,0 l/m 15,8 km/h (3 Bft) N-NW 339 0,3 C -3,9 C 27,4 km/h (5 Bft)
04.02.2023 04:25 3,0 C 83 % 1026,7 hPa 0,0 l/m 18,5 km/h (3 Bft) N-NW 336 0,4 C -5,1 C 30,6 km/h (5 Bft)
04.02.2023 04:20 3,1 C 82 % 1026,5 hPa 0,0 l/m 20,3 km/h (4 Bft) NW 315 0,3 C -5,8 C 30,6 km/h (5 Bft)
04.02.2023 04:15 3,0 C 82 % 1026,3 hPa 0,0 l/m 20,4 km/h (4 Bft) W-NW 294 0,2 C -5,9 C 32,2 km/h (5 Bft)
04.02.2023 04:10 3,1 C 83 % 1026,3 hPa 0,0 l/m 16,6 km/h (3 Bft) N-NW 338 0,5 C -4,1 C 24,1 km/h (4 Bft)
_ Min-Zeit 08:15 12:15 16:50 - 08:25 - - 12:00 03:40 08:25
Minimum _ 0,1 C 74 % 1020,8 hPa - 0,0 km/h (0 Bft) - - -2,8 C -7,4 C 0,0 km/h (0 Bft)
_ Max-Zeit 19:05 19:35 12:15 19:25 03:40 - - 19:20 13:25 03:45
Maximum _ 4,5 C 95 % 1036,0 hPa 0,4 l/m 25,2 km/h
W-NW (4 Bft)
- - 3,5 C 3,5 C 46,7 km/h
NW (6 Bft)
Durchschnitt _ 2,9 C 88 % 1026,1 hPa #9,4 l/m 13,3 km/h (3 Bft) NW - 1,1 C -2,1 C 24,3 km/h (4 Bft)
Wettermessnetz Ostbayern / Wetterstation Dumpf